^^
Saratoga-Weather Station Historical Data
Daily Summary for January 15, 2022 Units:  Metric    English   Both
Daily Weekly Monthly Yearly Custom
  High: Low: Average:
Temperature: 0.2 °C -2.9 °C -0.9 °C
Dew Point: -0.2 °C -3.4 °C -1.4 °C
Humidity: 97% 96% 97%
Wind Speed: 6.4km/h 0km/h 1km/h
Wind Gust: 9.7km/h - -
Wind- - East
Pressure: 1031.5 hPa 1024.4 hPa -
Precipitation: 0.5 mm    
Historical Graphs
 
 
Tabular Data for January 15, 2022
Time Temperature Dew Point Pressure Wind Wind Speed Wind Gust Humidity Rainfall Rate (Hourly) solar
00:00 -0.9 °C -1.5 °C 1031.5 hPa Calm     96% 0.0 mm 0 W/m2
00:05 -0.8 °C -1.4 °C 1031.5 hPa Calm     96% 0.0 mm 0 W/m2
00:10 -0.8 °C -1.4 °C 1031.5 hPa Calm     96% 0.0 mm 0 W/m2
00:15 -0.8 °C -1.4 °C 1031.5 hPa Calm     96% 0.0 mm 0 W/m2
00:20 -0.7 °C -1.3 °C 1031.5 hPa Calm     96% 0.0 mm 0 W/m2
00:25 -0.7 °C -1.3 °C 1031.5 hPa Calm     96% 0.0 mm 0 W/m2
00:30 -0.7 °C -1.3 °C 1031.5 hPa Calm     96% 0.0 mm 0 W/m2
00:35 -0.4 °C -1 °C 1031.5 hPa Calm     96% 0.0 mm 0 W/m2
00:40 -0.3 °C -0.7 °C 1031.5 hPa Calm     97% 0.0 mm 0 W/m2
00:45 -0.3 °C -0.7 °C 1031.2 hPa Calm     97% 0.0 mm 0 W/m2
00:50 -0.3 °C -0.7 °C 1031.2 hPa Calm     97% 0.0 mm 0 W/m2
00:55 -0.3 °C -0.7 °C 1031.2 hPa Calm     97% 0.0 mm 0 W/m2
01:00 -0.4 °C -0.8 °C 1031.2 hPa Calm     97% 0.0 mm 0 W/m2
01:05 -0.4 °C -1 °C 1031.2 hPa Calm     96% 0.0 mm 0 W/m2
01:10 -0.5 °C -1.1 °C 1031.2 hPa Calm     96% 0.0 mm 0 W/m2
01:15 -0.5 °C -1.1 °C 1031.2 hPa Calm     96% 0.0 mm 0 W/m2
01:20 -0.6 °C -1.2 °C 1031.2 hPa Calm     96% 0.0 mm 0 W/m2
01:25 -0.6 °C -1.2 °C 1031.2 hPa Calm     96% 0.0 mm 0 W/m2
01:30 -0.6 °C -1.2 °C 1031.2 hPa Calm     96% 0.0 mm 0 W/m2
01:35 -0.6 °C -1.2 °C 1030.8 hPa Calm     96% 0.0 mm 0 W/m2
01:40 -0.6 °C -1.2 °C 1030.8 hPa Calm     96% 0.0 mm 0 W/m2
01:45 -0.7 °C -1.3 °C 1030.8 hPa Calm     96% 0.0 mm 0 W/m2
01:50 -0.8 °C -1.4 °C 1030.8 hPa Calm     96% 0.0 mm 0 W/m2
01:55 -0.8 °C -1.4 °C 1030.8 hPa Calm     96% 0.0 mm 0 W/m2
02:00 -0.9 °C -1.5 °C 1030.8 hPa Calm     96% 0.0 mm 0 W/m2
02:05 -1 °C -1.6 °C 1030.8 hPa Calm     96% 0.0 mm 0 W/m2
02:10 -1.1 °C -1.7 °C 1030.5 hPa Calm     96% 0.0 mm 0 W/m2
02:15 -1.2 °C -1.8 °C 1030.5 hPa Calm     96% 0.0 mm 0 W/m2
02:20 -1.3 °C -1.9 °C 1030.5 hPa Calm     96% 0.0 mm 0 W/m2
02:25 -1.3 °C -1.9 °C 1030.5 hPa Calm     96% 0.0 mm 0 W/m2
02:30 -1.3 °C -1.9 °C 1030.5 hPa Calm     96% 0.0 mm 0 W/m2
02:35 -1.4 °C -2 °C 1030.5 hPa Calm     96% 0.0 mm 0 W/m2
02:40 -1.4 °C -2 °C 1030.5 hPa Calm     96% 0.0 mm 0 W/m2
02:45 -1.3 °C -1.9 °C 1030.5 hPa Calm     96% 0.0 mm 0 W/m2
02:50 -1.3 °C -1.7 °C 1030.5 hPa Calm     97% 0.0 mm 0 W/m2
02:55 -1.3 °C -1.7 °C 1030.5 hPa Calm   3.2 km/h 97% 0.0 mm 0 W/m2
03:00 -1.2 °C -1.6 °C 1030.5 hPa Calm     97% 0.0 mm 0 W/m2
03:05 -1.3 °C -1.7 °C 1030.5 hPa Calm     97% 0.0 mm 0 W/m2
03:10 -1.3 °C -1.7 °C 1030.5 hPa Calm     97% 0.0 mm 0 W/m2
03:15 -1.4 °C -2 °C 1030.1 hPa Calm     96% 0.0 mm 0 W/m2
03:20 -1.4 °C -2 °C 1030.1 hPa Calm     96% 0.0 mm 0 W/m2
03:25 -1.4 °C -2 °C 1030.1 hPa Calm     96% 0.0 mm 0 W/m2
03:30 -1.4 °C -2 °C 1030.1 hPa Calm     96% 0.0 mm 0 W/m2
03:35 -1.4 °C -2 °C 1030.1 hPa Calm     96% 0.0 mm 0 W/m2
03:40 -1.5 °C -2.1 °C 1030.1 hPa Calm     96% 0.0 mm 0 W/m2
03:45 -1.6 °C -2.2 °C 1030.1 hPa Calm     96% 0.0 mm 0 W/m2
03:50 -1.6 °C -2.2 °C 1030.1 hPa Calm     96% 0.0 mm 0 W/m2
03:55 -1.7 °C -2.3 °C 1030.1 hPa Calm     96% 0.0 mm 0 W/m2
04:00 -1.7 °C -2.1 °C 1030.1 hPa Calm     97% 0.0 mm 0 W/m2
04:05 -1.7 °C -2.1 °C 1030.1 hPa Calm     97% 0.0 mm 0 W/m2
04:10 -1.7 °C -2.3 °C 1030.1 hPa Calm     96% 0.0 mm 0 W/m2
04:15 -1.8 °C -2.4 °C 1030.1 hPa Calm     96% 0.0 mm 0 W/m2
04:20 -1.8 °C -2.4 °C 1030.1 hPa Calm     96% 0.0 mm 0 W/m2
04:25 -1.9 °C -2.5 °C 1029.8 hPa Calm     96% 0.0 mm 0 W/m2
04:30 -1.9 °C -2.5 °C 1029.8 hPa Calm     96% 0.0 mm 0 W/m2
04:35 -2 °C -2.6 °C 1029.8 hPa Calm   1.6 km/h 96% 0.0 mm 0 W/m2
04:40 -2.1 °C -2.7 °C 1029.8 hPa Calm     96% 0.0 mm 0 W/m2
04:45 -2.2 °C -2.8 °C 1029.8 hPa ESE 1.4 km/h 3.2 km/h 96% 0.0 mm 0 W/m2
04:50 -2.2 °C -2.8 °C 1029.8 hPa ESE 1.4 km/h 3.2 km/h 96% 0.0 mm 0 W/m2
04:55 -2.2 °C -2.8 °C 1029.8 hPa ESE 1.4 km/h 1.6 km/h 96% 0.0 mm 0 W/m2
05:00 -2.3 °C -2.9 °C 1029.8 hPa ESE 1.4 km/h 3.2 km/h 96% 0.0 mm 0 W/m2
05:05 -2.3 °C -2.9 °C 1029.8 hPa ESE 1.4 km/h 3.2 km/h 96% 0.0 mm 0 W/m2
05:10 -2.3 °C -2.9 °C 1029.8 hPa East 1.4 km/h 4.8 km/h 96% 0.0 mm 0 W/m2
05:15 -2.3 °C -2.9 °C 1029.8 hPa ESE 1.4 km/h 4.8 km/h 96% 0.0 mm 0 W/m2
05:20 -2.3 °C -2.9 °C 1029.8 hPa Calm     96% 0.0 mm 0 W/m2
05:25 -2.3 °C -2.9 °C 1029.8 hPa Calm   4.8 km/h 96% 0.0 mm 0 W/m2
05:30 -2.4 °C -3 °C 1029.8 hPa Calm   1.6 km/h 96% 0.0 mm 0 W/m2
05:35 -2.4 °C -3 °C 1029.8 hPa SE 3.2 km/h 3.2 km/h 96% 0.0 mm 0 W/m2
05:40 -2.4 °C -3 °C 1029.5 hPa Calm     96% 0.0 mm 0 W/m2
05:45 -2.4 °C -3 °C 1029.5 hPa Calm     96% 0.0 mm 0 W/m2
05:50 -2.5 °C -3 °C 1029.5 hPa Calm   3.2 km/h 96% 0.0 mm 0 W/m2
05:55 -2.5 °C -3 °C 1029.5 hPa Calm     96% 0.0 mm 0 W/m2
06:00 -2.5 °C -2.9 °C 1029.5 hPa Calm   3.2 km/h 97% 0.0 mm 0 W/m2
06:05 -2.6 °C -3 °C 1029.5 hPa Calm     97% 0.0 mm 0 W/m2
06:10 -2.6 °C -3 °C 1029.5 hPa East 1.4 km/h 3.2 km/h 97% 0.0 mm 0 W/m2
06:15 -2.6 °C -3.1 °C 1029.5 hPa East 1.4 km/h 3.2 km/h 96% 0.0 mm 0 W/m2
06:20 -2.7 °C -3.2 °C 1029.5 hPa Calm   1.6 km/h 96% 0.0 mm 0 W/m2
06:25 -2.7 °C -3.2 °C 1029.5 hPa Calm   1.6 km/h 96% 0.0 mm 0 W/m2
06:30 -2.8 °C -3.3 °C 1029.5 hPa East 3.2 km/h 4.8 km/h 96% 0.0 mm 0 W/m2
06:35 -2.8 °C -3.3 °C 1029.5 hPa Calm     96% 0.0 mm 0 W/m2
06:40 -2.8 °C -3.3 °C 1029.5 hPa ESE 1.4 km/h 1.6 km/h 96% 0.0 mm 0 W/m2
06:45 -2.8 °C -3.3 °C 1029.5 hPa Calm     96% 0.0 mm 0 W/m2
06:50 -2.8 °C -3.3 °C 1029.5 hPa Calm     96% 0.0 mm 0 W/m2
06:55 -2.9 °C -3.4 °C 1029.5 hPa Calm     96% 0.0 mm 0 W/m2
07:00 -2.9 °C -3.4 °C 1029.1 hPa Calm     96% 0.0 mm 0 W/m2
07:05 -2.9 °C -3.4 °C 1029.5 hPa Calm     96% 0.0 mm 0 W/m2
07:10 -2.9 °C -3.4 °C 1029.5 hPa ESE 1.4 km/h 1.6 km/h 96% 0.0 mm 0 W/m2
07:15 -2.8 °C -3.3 °C 1029.1 hPa Calm   3.2 km/h 96% 0.0 mm 0 W/m2
07:20 -2.8 °C -3.3 °C 1029.1 hPa Calm     96% 0.0 mm 0 W/m2
07:25 -2.8 °C -3.2 °C 1029.1 hPa Calm     97% 0.0 mm 0 W/m2
07:30 -2.7 °C -3.1 °C 1029.1 hPa Calm     97% 0.0 mm 0 W/m2
07:35 -2.7 °C -3.1 °C 1029.1 hPa East 1.4 km/h 3.2 km/h 97% 0.0 mm 0 W/m2
07:40 -2.7 °C -3.1 °C 1029.1 hPa Calm   3.2 km/h 97% 0.0 mm 0 W/m2
07:45 -2.7 °C -3.1 °C 1029.1 hPa Calm   1.6 km/h 97% 0.0 mm 0 W/m2
07:50 -2.8 °C -3.2 °C 1029.1 hPa NE 3.2 km/h 4.8 km/h 97% 0.0 mm 0 W/m2
07:55 -2.8 °C -3.2 °C 1029.1 hPa Calm   1.6 km/h 97% 0.0 mm 0 W/m2
08:00 -2.7 °C -3.1 °C 1029.1 hPa ESE 1.4 km/h 4.8 km/h 97% 0.0 mm 0 W/m2
08:05 -2.8 °C -3.2 °C 1029.1 hPa Calm   1.6 km/h 97% 0.0 mm 0 W/m2
08:11 -2.8 °C -3.2 °C 1029.1 hPa Calm     97% 0.0 mm 0 W/m2
08:16 -2.8 °C -3.2 °C 1029.1 hPa Calm     97% 0.0 mm 0 W/m2
08:21 -2.7 °C -3.1 °C 1029.1 hPa NE 3.2 km/h 3.2 km/h 97% 0.0 mm 0 W/m2
08:26 -2.7 °C -3.1 °C 1029.1 hPa Calm   3.2 km/h 97% 0.0 mm 0 W/m2
08:31 -2.7 °C -3.1 °C 1029.1 hPa Calm   1.6 km/h 97% 0.0 mm 0 W/m2
08:36 -2.7 °C -3.1 °C 1029.1 hPa Calm   3.2 km/h 97% 0.0 mm 0 W/m2
08:41 -2.7 °C -3.1 °C 1029.1 hPa Calm   3.2 km/h 97% 0.0 mm 5 W/m2
08:46 -2.6 °C -3 °C 1029.1 hPa NW 1.4 km/h 3.2 km/h 97% 0.0 mm 7 W/m2
08:51 -2.6 °C -3 °C 1029.1 hPa Calm   1.6 km/h 97% 0.0 mm 9 W/m2
08:56 -2.5 °C -2.9 °C 1029.1 hPa NNE 1.4 km/h 6.4 km/h 97% 0.0 mm 11 W/m2
09:01 -2.4 °C -2.8 °C 1028.8 hPa NNW 1.4 km/h 1.6 km/h 97% 0.0 mm 12 W/m2
09:06 -2.4 °C -2.8 °C 1028.8 hPa Calm   4.8 km/h 97% 0.0 mm 16 W/m2
09:11 -2.4 °C -2.8 °C 1028.8 hPa Calm     97% 0.0 mm 18 W/m2
09:16 -2.3 °C -2.7 °C 1028.8 hPa Calm   3.2 km/h 97% 0.0 mm 19 W/m2
09:21 -2.3 °C -2.7 °C 1028.8 hPa Calm   1.6 km/h 97% 0.0 mm 25 W/m2
09:26 -2.2 °C -2.6 °C 1028.8 hPa East 4.7 km/h 6.4 km/h 97% 0.0 mm 19 W/m2
09:31 -2.2 °C -2.6 °C 1028.8 hPa Calm   3.2 km/h 97% 0.0 mm 25 W/m2
09:36 -2.1 °C -2.5 °C 1028.8 hPa Calm   1.6 km/h 97% 0.0 mm 26 W/m2
09:41 -2 °C -2.4 °C 1028.8 hPa Calm   1.6 km/h 97% 0.0 mm 26 W/m2
09:46 -1.9 °C -2.3 °C 1028.8 hPa North 1.4 km/h 3.2 km/h 97% 0.0 mm 33 W/m2
09:51 -1.9 °C -2.3 °C 1028.5 hPa Calm   1.6 km/h 97% 0.0 mm 37 W/m2
09:56 -1.8 °C -2.2 °C 1028.5 hPa Calm     97% 0.0 mm 44 W/m2
10:01 -1.8 °C -2.2 °C 1028.5 hPa Calm     97% 0.0 mm 49 W/m2
10:06 -1.7 °C -2.1 °C 1028.5 hPa Calm   1.6 km/h 97% 0.0 mm 46 W/m2
10:11 -1.7 °C -2.1 °C 1028.8 hPa North 1.4 km/h 1.6 km/h 97% 0.0 mm 53 W/m2
10:16 -1.6 °C -2 °C 1028.8 hPa East 1.4 km/h 4.8 km/h 97% 0.0 mm 46 W/m2
10:21 -1.6 °C -2 °C 1028.8 hPa ENE 3.2 km/h 3.2 km/h 97% 0.0 mm 49 W/m2
10:26 -1.6 °C -2 °C 1028.8 hPa Calm   4.8 km/h 97% 0.0 mm 62 W/m2
10:31 -1.5 °C -1.9 °C 1028.5 hPa ESE 3.2 km/h 3.2 km/h 97% 0.0 mm 56 W/m2
10:36 -1.4 °C -1.8 °C 1028.5 hPa ENE 1.4 km/h 3.2 km/h 97% 0.0 mm 62 W/m2
10:41 -1.3 °C -1.7 °C 1028.8 hPa ENE 1.4 km/h 1.6 km/h 97% 0.0 mm 67 W/m2
10:46 -1.3 °C -1.7 °C 1028.8 hPa ENE 1.4 km/h 3.2 km/h 97% 0.0 mm 72 W/m2
10:51 -1.2 °C -1.6 °C 1028.8 hPa Calm   3.2 km/h 97% 0.0 mm 88 W/m2
10:56 -1.2 °C -1.6 °C 1028.5 hPa Calm     97% 0.0 mm 81 W/m2
11:01 -1.1 °C -1.5 °C 1028.8 hPa Calm   1.6 km/h 97% 0.0 mm 81 W/m2
11:06 -1 °C -1.4 °C 1028.8 hPa Calm   1.6 km/h 97% 0.0 mm 100 W/m2
11:11 -0.9 °C -1.3 °C 1028.8 hPa ENE 3.2 km/h 3.2 km/h 97% 0.0 mm 97 W/m2
11:16 -0.9 °C -1.3 °C 1028.5 hPa Calm   3.2 km/h 97% 0.0 mm 86 W/m2
11:21 -0.9 °C -1.3 °C 1028.5 hPa East 1.4 km/h 3.2 km/h 97% 0.0 mm 86 W/m2
11:26 -0.9 °C -1.3 °C 1028.5 hPa Calm   4.8 km/h 97% 0.0 mm 74 W/m2
11:31 -0.8 °C -1.2 °C 1028.5 hPa East 1.4 km/h 3.2 km/h 97% 0.0 mm 70 W/m2
11:36 -0.8 °C -1.2 °C 1028.5 hPa Calm   3.2 km/h 97% 0.0 mm 93 W/m2
11:41 -0.8 °C -1.2 °C 1028.5 hPa ESE 3.2 km/h 3.2 km/h 97% 0.0 mm 74 W/m2
11:46 -0.8 °C -1.2 °C 1028.5 hPa ESE 3.2 km/h 4.8 km/h 97% 0.0 mm 93 W/m2
11:51 -0.8 °C -1.2 °C 1028.5 hPa ESE 1.4 km/h 3.2 km/h 97% 0.5 mm 83 W/m2
11:56 -0.8 °C -1.2 °C 1028.5 hPa ESE 1.4 km/h 3.2 km/h 97% 0.5 mm 83 W/m2
12:01 -0.8 °C -1.2 °C 1028.1 hPa ENE 3.2 km/h 3.2 km/h 97% 0.5 mm 77 W/m2
12:06 -0.8 °C -1.2 °C 1028.5 hPa East 1.4 km/h 3.2 km/h 97% 0.5 mm 77 W/m2
12:11 -0.7 °C -1.1 °C 1028.1 hPa SE 3.2 km/h 3.2 km/h 97% 0.5 mm 88 W/m2
12:16 -0.7 °C -1.1 °C 1028.1 hPa East 3.2 km/h 3.2 km/h 97% 0.5 mm 102 W/m2
12:21 -0.7 °C -1.1 °C 1028.1 hPa Calm   3.2 km/h 97% 0.5 mm 77 W/m2
12:26 -0.7 °C -1.1 °C 1028.1 hPa East 1.4 km/h 4.8 km/h 97% 0.5 mm 111 W/m2
12:31 -0.7 °C -1.1 °C 1027.8 hPa ENE 1.4 km/h 6.4 km/h 97% 0.5 mm 88 W/m2
12:36 -0.6 °C -1 °C 1027.8 hPa Calm   3.2 km/h 97% 0.5 mm 107 W/m2
12:41 -0.6 °C -1 °C 1027.8 hPa East 4.7 km/h 6.4 km/h 97% 0.5 mm 95 W/m2
12:46 -0.5 °C -0.9 °C 1027.8 hPa NE 1.4 km/h 3.2 km/h 97% 0.5 mm 118 W/m2
12:51 -0.5 °C -0.9 °C 1027.8 hPa East 3.2 km/h 3.2 km/h 97% 0.0 mm 128 W/m2
12:56 -0.4 °C -0.8 °C 1027.8 hPa Calm   4.8 km/h 97% 0.0 mm 100 W/m2
13:01 -0.4 °C -0.8 °C 1027.8 hPa ESE 4.7 km/h 6.4 km/h 97% 0.0 mm 114 W/m2
13:06 -0.3 °C -0.7 °C 1027.4 hPa ENE 3.2 km/h 9.7 km/h 97% 0.0 mm 100 W/m2
13:11 -0.3 °C -0.7 °C 1027.4 hPa ESE 3.2 km/h 6.4 km/h 97% 0.0 mm 83 W/m2
13:16 -0.3 °C -0.7 °C 1027.4 hPa East 1.4 km/h 3.2 km/h 97% 0.0 mm 90 W/m2
13:21 -0.3 °C -0.7 °C 1027.4 hPa Calm   6.4 km/h 97% 0.0 mm 90 W/m2
13:26 -0.3 °C -0.7 °C 1027.4 hPa East 1.4 km/h 4.8 km/h 97% 0.0 mm 91 W/m2
13:31 -0.2 °C -0.6 °C 1027.1 hPa East 1.4 km/h 4.8 km/h 97% 0.0 mm 90 W/m2
13:36 -0.2 °C -0.6 °C 1027.1 hPa ENE 1.4 km/h 3.2 km/h 97% 0.0 mm 95 W/m2
13:41 -0.2 °C -0.6 °C 1027.1 hPa ENE 1.4 km/h 4.8 km/h 97% 0.0 mm 84 W/m2
13:46 -0.2 °C -0.6 °C 1027.1 hPa ENE 1.4 km/h 4.8 km/h 97% 0.0 mm 79 W/m2
13:51 -0.2 °C -0.6 °C 1027.1 hPa ENE 1.4 km/h 1.6 km/h 97% 0.0 mm 95 W/m2
13:56 -0.2 °C -0.6 °C 1026.8 hPa ENE 1.4 km/h 8 km/h 97% 0.0 mm 91 W/m2
14:01 -0.2 °C -0.6 °C 1026.8 hPa Calm   3.2 km/h 97% 0.0 mm 77 W/m2
14:06 -0.2 °C -0.6 °C 1026.8 hPa ENE 4.7 km/h 6.4 km/h 97% 0.0 mm 79 W/m2
14:11 -0.2 °C -0.6 °C 1026.8 hPa NE 3.2 km/h 6.4 km/h 97% 0.0 mm 84 W/m2
14:16 -0.2 °C -0.6 °C 1026.8 hPa NE 3.2 km/h 3.2 km/h 97% 0.0 mm 69 W/m2
14:21 -0.1 °C -0.5 °C 1026.8 hPa Calm   1.6 km/h 97% 0.0 mm 72 W/m2
14:26 0 °C -0.4 °C 1026.8 hPa East 3.2 km/h 3.2 km/h 97% 0.0 mm 90 W/m2
14:31 0.1 °C -0.3 °C 1026.8 hPa Calm   6.4 km/h 97% 0.0 mm 109 W/m2
14:36 0.1 °C -0.3 °C 1026.8 hPa Calm   3.2 km/h 97% 0.0 mm 90 W/m2
14:41 0.1 °C -0.3 °C 1026.4 hPa Calm   1.6 km/h 97% 0.0 mm 77 W/m2
14:46 0.1 °C -0.3 °C 1026.4 hPa Calm   1.6 km/h 97% 0.0 mm 69 W/m2
14:51 0.1 °C -0.3 °C 1026.4 hPa Calm     97% 0.0 mm 53 W/m2
14:56 0.2 °C -0.2 °C 1026.4 hPa NE 3.2 km/h 3.2 km/h 97% 0.0 mm 58 W/m2
15:01 0.1 °C -0.3 °C 1026.4 hPa Calm   3.2 km/h 97% 0.0 mm 53 W/m2
15:06 0.1 °C -0.3 °C 1026.4 hPa Calm     97% 0.0 mm 42 W/m2
15:11 0.1 °C -0.3 °C 1026.4 hPa Calm   3.2 km/h 97% 0.0 mm 47 W/m2
15:16 0.1 °C -0.3 °C 1026.4 hPa Calm   1.6 km/h 97% 0.0 mm 51 W/m2
15:21 0.2 °C -0.2 °C 1026.1 hPa Calm   3.2 km/h 97% 0.0 mm 42 W/m2
15:26 0.2 °C -0.2 °C 1026.1 hPa ENE 3.2 km/h 4.8 km/h 97% 0.0 mm 46 W/m2
15:31 0.1 °C -0.3 °C 1026.1 hPa Calm     97% 0.0 mm 37 W/m2
15:36 0.2 °C -0.2 °C 1026.1 hPa Calm   4.8 km/h 97% 0.0 mm 33 W/m2
15:41 0.1 °C -0.3 °C 1026.1 hPa Calm   1.6 km/h 97% 0.0 mm 39 W/m2
15:47 0.2 °C -0.2 °C 1026.1 hPa Calm     97% 0.0 mm 26 W/m2
15:52 0.2 °C -0.2 °C 1026.1 hPa Calm     97% 0.0 mm 30 W/m2
15:57 0.2 °C -0.2 °C 1026.1 hPa NNE 1.4 km/h 3.2 km/h 97% 0.0 mm 28 W/m2
16:02 0.2 °C -0.2 °C 1026.1 hPa Calm     97% 0.0 mm 18 W/m2
16:07 0.2 °C -0.2 °C 1026.1 hPa Calm   3.2 km/h 97% 0.0 mm 21 W/m2
16:12 0.2 °C -0.2 °C 1026.1 hPa Calm     97% 0.0 mm 16 W/m2
16:17 0.2 °C -0.2 °C 1026.1 hPa Calm   1.6 km/h 97% 0.0 mm 14 W/m2
16:22 0.2 °C -0.2 °C 1026.1 hPa Calm     97% 0.0 mm 18 W/m2
16:27 0.2 °C -0.2 °C 1026.1 hPa Calm     97% 0.0 mm 18 W/m2
16:32 0.2 °C -0.2 °C 1026.1 hPa Calm     97% 0.0 mm 11 W/m2
16:37 0.2 °C -0.2 °C 1026.1 hPa Calm     97% 0.0 mm 11 W/m2
16:42 0.2 °C -0.2 °C 1026.1 hPa Calm     97% 0.0 mm 9 W/m2
16:47 0.2 °C -0.4 °C 1025.7 hPa ENE 1.4 km/h 4.8 km/h 96% 0.0 mm 7 W/m2
16:52 0.2 °C -0.4 °C 1025.7 hPa Calm   3.2 km/h 96% 0.0 mm 5 W/m2
16:57 0.2 °C -0.4 °C 1025.7 hPa East 3.2 km/h 4.8 km/h 96% 0.0 mm 0 W/m2
17:02 0.2 °C -0.4 °C 1025.7 hPa Calm   4.8 km/h 96% 0.0 mm 0 W/m2
17:07 0.2 °C -0.4 °C 1025.7 hPa NE 3.2 km/h 3.2 km/h 96% 0.0 mm 0 W/m2
17:12 0.2 °C -0.4 °C 1025.7 hPa NE 1.4 km/h 4.8 km/h 96% 0.0 mm 0 W/m2
17:17 0.2 °C -0.4 °C 1025.7 hPa Calm   3.2 km/h 96% 0.0 mm 0 W/m2
17:22 0.1 °C -0.5 °C 1025.7 hPa East 1.4 km/h 3.2 km/h 96% 0.0 mm 0 W/m2
17:27 0.2 °C -0.4 °C 1025.7 hPa East 3.2 km/h 6.4 km/h 96% 0.0 mm 0 W/m2
17:32 0.2 °C -0.4 °C 1025.7 hPa Calm   3.2 km/h 96% 0.0 mm 0 W/m2
17:37 0.2 °C -0.4 °C 1025.7 hPa ENE 1.4 km/h 6.4 km/h 96% 0.0 mm 0 W/m2
17:42 0.2 °C -0.4 °C 1025.7 hPa ENE 3.2 km/h 4.8 km/h 96% 0.0 mm 0 W/m2
17:47 0.2 °C -0.4 °C 1025.7 hPa Calm   6.4 km/h 96% 0.0 mm 0 W/m2
17:52 0.2 °C -0.4 °C 1025.7 hPa ENE 1.4 km/h 3.2 km/h 96% 0.0 mm 0 W/m2
17:57 0.1 °C -0.5 °C 1025.7 hPa East 1.4 km/h 4.8 km/h 96% 0.0 mm 0 W/m2
18:02 0.1 °C -0.5 °C 1025.7 hPa Calm   3.2 km/h 96% 0.0 mm 0 W/m2
18:07 0.1 °C -0.5 °C 1025.7 hPa East 1.4 km/h 4.8 km/h 96% 0.0 mm 0 W/m2
18:12 0.1 °C -0.5 °C 1025.7 hPa SE 3.2 km/h 6.4 km/h 96% 0.0 mm 0 W/m2
18:17 0.1 °C -0.5 °C 1025.7 hPa East 1.4 km/h 3.2 km/h 96% 0.0 mm 0 W/m2
18:22 0.1 °C -0.5 °C 1025.7 hPa ESE 3.2 km/h 3.2 km/h 96% 0.0 mm 0 W/m2
18:27 0 °C -0.6 °C 1025.7 hPa SE 3.2 km/h 4.8 km/h 96% 0.0 mm 0 W/m2
18:32 -0.1 °C -0.7 °C 1025.7 hPa ESE 1.4 km/h 4.8 km/h 96% 0.0 mm 0 W/m2
18:37 -0.1 °C -0.5 °C 1025.7 hPa Calm   6.4 km/h 97% 0.0 mm 0 W/m2
18:42 -0.1 °C -0.7 °C 1025.7 hPa ENE 1.4 km/h 4.8 km/h 96% 0.0 mm 0 W/m2
18:47 -0.1 °C -0.7 °C 1025.7 hPa Calm   6.4 km/h 96% 0.0 mm 0 W/m2
18:52 -0.1 °C -0.7 °C 1025.7 hPa ESE 1.4 km/h 4.8 km/h 96% 0.0 mm 0 W/m2
18:57 -0.2 °C -0.8 °C 1025.7 hPa Calm     96% 0.0 mm 0 W/m2
19:02 -0.2 °C -0.8 °C 1025.7 hPa Calm   4.8 km/h 96% 0.0 mm 0 W/m2
19:07 -0.2 °C -0.8 °C 1025.7 hPa NE 1.4 km/h 3.2 km/h 96% 0.0 mm 0 W/m2
19:12 -0.2 °C -0.8 °C 1025.7 hPa ENE 4.7 km/h 4.8 km/h 96% 0.0 mm 0 W/m2
19:17 -0.2 °C -0.8 °C 1025.7 hPa Calm   3.2 km/h 96% 0.0 mm 0 W/m2
19:22 -0.2 °C -0.8 °C 1025.7 hPa East 4.7 km/h 4.8 km/h 96% 0.0 mm 0 W/m2
19:27 -0.2 °C -0.8 °C 1025.7 hPa East 1.4 km/h 1.6 km/h 96% 0.0 mm 0 W/m2
19:32 -0.2 °C -0.8 °C 1025.7 hPa East 1.4 km/h 3.2 km/h 96% 0.0 mm 0 W/m2
19:38 -0.2 °C -0.8 °C 1025.7 hPa Calm   3.2 km/h 96% 0.0 mm 0 W/m2
19:43 -0.2 °C -0.8 °C 1025.7 hPa ESE 1.4 km/h 3.2 km/h 96% 0.0 mm 0 W/m2
19:48 -0.2 °C -0.8 °C 1025.7 hPa Calm   3.2 km/h 96% 0.0 mm 0 W/m2
19:53 -0.2 °C -0.8 °C 1025.7 hPa Calm   3.2 km/h 96% 0.0 mm 0 W/m2
19:58 -0.2 °C -0.6 °C 1025.7 hPa ESE 1.4 km/h 3.2 km/h 97% 0.0 mm 0 W/m2
20:03 -0.2 °C -0.6 °C 1025.7 hPa Calm   3.2 km/h 97% 0.0 mm 0 W/m2
20:08 -0.2 °C -0.6 °C 1025.7 hPa Calm   1.6 km/h 97% 0.0 mm 0 W/m2
20:13 -0.1 °C -0.5 °C 1025.7 hPa Calm   3.2 km/h 97% 0.0 mm 0 W/m2
20:18 -0.1 °C -0.5 °C 1026.1 hPa Calm     97% 0.0 mm 0 W/m2
20:23 -0.1 °C -0.5 °C 1026.1 hPa Calm   1.6 km/h 97% 0.0 mm 0 W/m2
20:28 -0.1 °C -0.5 °C 1026.8 hPa Calm   3.2 km/h 97% 0.0 mm 0 W/m2
20:33 -0.1 °C -0.5 °C 1026.8 hPa ESE 3.2 km/h 3.2 km/h 97% 0.0 mm 0 W/m2
20:38 -0.1 °C -0.5 °C 1026.8 hPa SE 1.4 km/h 6.4 km/h 97% 0.0 mm 0 W/m2
20:43 -0.1 °C -0.5 °C 1026.1 hPa Calm   1.6 km/h 97% 0.0 mm 0 W/m2
20:48 -0.1 °C -0.5 °C 1024.7 hPa ESE 3.2 km/h 3.2 km/h 97% 0.0 mm 0 W/m2
20:53 -0.1 °C -0.5 °C 1024.4 hPa Calm   1.6 km/h 97% 0.0 mm 0 W/m2
20:58 -0.1 °C -0.5 °C 1024.7 hPa East 1.4 km/h 6.4 km/h 97% 0.0 mm 0 W/m2
21:03 0 °C -0.4 °C 1025.4 hPa East 3.2 km/h 3.2 km/h 97% 0.0 mm 0 W/m2
21:08 0 °C -0.4 °C 1025.7 hPa SE 1.4 km/h 1.6 km/h 97% 0.0 mm 0 W/m2
21:13 0 °C -0.4 °C 1025.4 hPa Calm   1.6 km/h 97% 0.0 mm 0 W/m2
21:18 0 °C -0.4 °C 1025.4 hPa Calm   3.2 km/h 97% 0.0 mm 0 W/m2
21:23 0 °C -0.4 °C 1025.1 hPa Calm   3.2 km/h 97% 0.0 mm 0 W/m2
21:28 -0.1 °C -0.5 °C 1025.1 hPa ESE 1.4 km/h 3.2 km/h 97% 0.0 mm 0 W/m2
21:33 -0.1 °C -0.5 °C 1025.1 hPa ESE 1.4 km/h 3.2 km/h 97% 0.0 mm 0 W/m2
21:38 -0.1 °C -0.5 °C 1025.1 hPa SE 4.7 km/h 4.8 km/h 97% 0.0 mm 0 W/m2
21:43 -0.1 °C -0.5 °C 1025.4 hPa ESE 3.2 km/h 4.8 km/h 97% 0.0 mm 0 W/m2
21:48 -0.1 °C -0.5 °C 1025.4 hPa East 1.4 km/h 1.6 km/h 97% 0.0 mm 0 W/m2
21:53 -0.1 °C -0.5 °C 1025.7 hPa ESE 3.2 km/h 9.7 km/h 97% 0.0 mm 0 W/m2
21:58 -0.1 °C -0.5 °C 1025.4 hPa ESE 1.4 km/h 3.2 km/h 97% 0.0 mm 0 W/m2
22:03 -0.1 °C -0.5 °C 1025.1 hPa ESE 3.2 km/h 6.4 km/h 97% 0.0 mm 0 W/m2
22:08 -0.1 °C -0.5 °C 1025.1 hPa ESE 4.7 km/h 4.8 km/h 97% 0.0 mm 0 W/m2
22:13 -0.1 °C -0.7 °C 1025.1 hPa ESE 3.2 km/h 6.4 km/h 96% 0.0 mm 0 W/m2
22:18 -0.1 °C -0.7 °C 1025.1 hPa SE 1.4 km/h 6.4 km/h 96% 0.0 mm 0 W/m2
22:23 -0.1 °C -0.7 °C 1025.1 hPa ESE 3.2 km/h 6.4 km/h 96% 0.0 mm 0 W/m2
22:28 -0.2 °C -0.8 °C 1025.1 hPa SE 1.4 km/h 4.8 km/h 96% 0.0 mm 0 W/m2
22:33 -0.2 °C -0.8 °C 1025.4 hPa Calm   6.4 km/h 96% 0.0 mm 0 W/m2
22:38 -0.3 °C -0.7 °C 1025.7 hPa Calm   3.2 km/h 97% 0.0 mm 0 W/m2
22:43 -0.3 °C -0.9 °C 1025.7 hPa SE 1.4 km/h 6.4 km/h 96% 0.0 mm 0 W/m2
22:48 -0.3 °C -0.9 °C 1025.7 hPa East 1.4 km/h 4.8 km/h 96% 0.0 mm 0 W/m2
22:53 -0.4 °C -1 °C 1025.7 hPa Calm   3.2 km/h 96% 0.0 mm 0 W/m2
22:58 -0.4 °C -1 °C 1025.4 hPa Calm   3.2 km/h 96% 0.0 mm 0 W/m2
23:03 -0.4 °C -1 °C 1025.7 hPa SE 3.2 km/h 4.8 km/h 96% 0.0 mm 0 W/m2
23:08 -0.4 °C -1 °C 1025.4 hPa SE 3.2 km/h 6.4 km/h 96% 0.0 mm 0 W/m2
23:13 -0.4 °C -1 °C 1025.4 hPa ESE 1.4 km/h 3.2 km/h 96% 0.0 mm 0 W/m2
23:18 -0.4 °C -1 °C 1025.4 hPa East 3.2 km/h 8 km/h 96% 0.0 mm 0 W/m2
23:23 -0.4 °C -1 °C 1025.4 hPa ESE 1.4 km/h 3.2 km/h 96% 0.0 mm 0 W/m2
23:28 -0.4 °C -1 °C 1025.7 hPa ESE 3.2 km/h 6.4 km/h 96% 0.0 mm 0 W/m2
23:33 -0.5 °C -1.1 °C 1025.7 hPa ESE 1.4 km/h 3.2 km/h 96% 0.0 mm 0 W/m2
23:38 -0.5 °C -1.1 °C 1025.4 hPa ESE 4.7 km/h 4.8 km/h 96% 0.0 mm 0 W/m2
23:43 -0.5 °C -1.1 °C 1025.4 hPa East 6.4 km/h 8 km/h 96% 0.0 mm 0 W/m2
23:48 -0.6 °C -1.2 °C 1025.4 hPa SE 3.2 km/h 4.8 km/h 96% 0.0 mm 0 W/m2
23:53 -0.6 °C -1.2 °C 1025.7 hPa ESE 4.7 km/h 4.8 km/h 96% 0.0 mm 0 W/m2
23:58 -0.7 °C -1.3 °C 1025.4 hPa ESE 1.4 km/h 4.8 km/h 96% 0.0 mm 0 W/m2
Juneau County Weather
Compliments of Weather Underground - 4 mb